WWD weather

Cape May County Airport
Wildwood, New Jersey, United States

Public forecast

Using degrees Fahrenheit for public forecast. Weather courtesy of forecast.io.

METAR (pilot weather report)

Retrieved 2018/07/15 21:55 UTC (34 minutes ago):

KWWD 152155Z AUTO 17005KT 10SM CLR 27/22 A2998 RMK AO2 SLP154 T02720217

TAF (pilot weather forecast)

Closest forecast is Millville Municipal Airport, 22.9 nm (42.4 km) NNW. Retrieved 2018/07/15 18:45 UTC (4 hours ago):

TAF KMIV 151743Z 1518/1618 29007KT P6SM BKN080 FM160000 VRB02KT P6SM SCT100 FM161300 22007KT P6SM SCT060